createdAt,value
2023-05-09T00:04:21.006Z,101691.03
2023-05-09T00:09:23.750Z,101689.13
2023-05-09T00:14:27.832Z,101684.53
2023-05-09T00:19:30.818Z,101681.91
2023-05-09T00:24:33.536Z,101677.28
2023-05-09T00:29:37.734Z,101671.66
2023-05-09T00:34:40.522Z,101661.19
2023-05-09T00:39:43.223Z,101658.59
2023-05-09T00:44:47.376Z,101654.97
2023-05-09T00:49:50.530Z,101649.56
2023-05-09T00:54:53.581Z,101641.00
2023-05-09T00:59:58.253Z,101633.94
2023-05-09T01:05:01.961Z,101626.69
2023-05-09T01:10:12.878Z,101617.66
2023-05-09T01:15:24.213Z,101602.75
2023-05-09T01:20:34.453Z,101600.72
2023-05-09T01:25:55.494Z,101587.63
2023-05-09T01:30:59.886Z,101580.19
2023-05-09T01:36:08.451Z,101594.81
2023-05-09T01:41:14.965Z,101581.13
2023-05-09T01:46:20.655Z,101575.53
2023-05-09T01:51:25.382Z,101575.47
2023-05-09T01:56:29.493Z,101585.06
2023-05-09T02:01:33.972Z,101586.81
2023-05-09T02:06:37.892Z,101589.09
2023-05-09T02:11:40.941Z,101592.84
2023-05-09T02:16:45.113Z,101602.09
2023-05-09T02:21:48.283Z,101591.91
2023-05-09T02:26:51.444Z,101582.84
2023-05-09T02:31:56.119Z,101573.81
2023-05-09T02:36:59.074Z,101565.50
2023-05-09T02:42:07.874Z,101564.25
2023-05-09T02:47:11.978Z,101554.34
2023-05-09T02:52:14.989Z,101562.38
2023-05-09T02:57:18.074Z,101553.56
2023-05-09T03:02:23.665Z,101552.25
2023-05-09T03:07:27.755Z,101556.28
2023-05-09T03:12:30.568Z,101552.66
2023-05-09T03:17:35.435Z,101544.16
2023-05-09T03:22:38.367Z,101539.25
2023-05-09T03:27:43.977Z,101534.28
2023-05-09T03:32:51.625Z,101531.69
2023-05-09T03:37:54.766Z,101534.66
2023-05-09T03:42:57.745Z,101529.53
2023-05-09T03:48:02.956Z,101522.69
2023-05-09T03:53:06.462Z,101526.06
2023-05-09T03:58:12.725Z,101518.50
2023-05-09T04:03:19.610Z,101508.69
2023-05-09T04:08:24.940Z,101505.31
2023-05-09T04:13:28.162Z,101499.09
2023-05-09T04:18:32.651Z,101506.88
2023-05-09T04:23:36.170Z,101491.31
2023-05-09T04:28:39.038Z,101491.69
2023-05-09T04:33:43.749Z,101494.91
2023-05-09T04:38:46.666Z,101491.88
2023-05-09T04:43:53.716Z,101497.41
2023-05-09T04:48:59.763Z,101482.28
2023-05-09T04:54:02.716Z,101489.50
2023-05-09T04:59:09.130Z,101479.91
2023-05-09T05:04:13.283Z,101473.81
2023-05-09T05:09:16.979Z,101461.84
2023-05-09T05:14:19.845Z,101465.88
2023-05-09T05:19:24.147Z,101471.75
2023-05-09T05:24:27.152Z,101460.53
2023-05-09T05:29:32.273Z,101456.59
2023-05-09T05:34:36.645Z,101453.13
2023-05-09T05:39:40.020Z,101445.44
2023-05-09T05:44:43.168Z,101437.69
2023-05-09T05:49:49.333Z,101436.88
2023-05-09T05:54:52.670Z,101435.22
2023-05-09T05:59:55.695Z,101439.00
2023-05-09T06:05:00.181Z,101428.88
2023-05-09T06:10:03.262Z,101424.00
2023-05-09T06:15:07.371Z,101425.69
2023-05-09T06:20:15.892Z,101420.59
2023-05-09T06:25:18.746Z,101414.78
2023-05-09T06:30:26.187Z,101391.94
2023-05-09T06:35:31.233Z,101377.34
2023-05-09T06:40:34.060Z,101369.97
2023-05-09T06:45:37.067Z,101374.97
2023-05-09T06:50:41.213Z,101361.72
2023-05-09T06:55:44.083Z,101358.69
2023-05-09T07:00:47.425Z,101364.41
2023-05-09T07:05:52.442Z,101357.28
2023-05-09T07:10:55.369Z,101347.78
2023-05-09T07:15:58.339Z,101340.72
2023-05-09T07:21:02.773Z,101334.72
2023-05-09T07:26:05.899Z,101337.63
2023-05-09T07:31:09.422Z,101325.25
2023-05-09T07:36:16.151Z,101314.69
2023-05-09T07:41:19.351Z,101311.16
2023-05-09T07:46:22.213Z,101292.28
2023-05-09T07:51:42.954Z,101277.47
2023-05-09T07:56:45.893Z,101272.66
2023-05-09T08:01:51.705Z,101261.63
2023-05-09T08:06:55.887Z,101259.56
2023-05-09T08:11:58.687Z,101254.38
2023-05-09T08:17:01.494Z,101248.78
2023-05-09T08:22:06.356Z,101236.91
2023-05-09T08:27:09.457Z,101235.53
2023-05-09T08:32:12.244Z,101233.06
2023-05-09T08:37:16.486Z,101232.19
2023-05-09T08:42:24.772Z,101234.63
2023-05-09T08:47:29.792Z,101230.19
2023-05-09T08:52:34.913Z,101227.84
2023-05-09T08:57:38.365Z,101213.78
2023-05-09T09:02:42.806Z,101216.84
2023-05-09T09:07:47.653Z,101201.66
2023-05-09T09:12:50.941Z,101202.91
2023-05-09T09:17:56.528Z,101199.31
2023-05-09T09:23:02.204Z,101190.53
2023-05-09T09:28:05.842Z,101182.56
2023-05-09T09:33:08.663Z,101179.13
2023-05-09T09:38:12.800Z,101172.81
2023-05-09T09:43:16.086Z,101167.03
2023-05-09T09:48:19.313Z,101160.72
2023-05-09T09:53:24.969Z,101152.19
2023-05-09T09:58:28.045Z,101149.78
2023-05-09T10:03:36.674Z,101137.94
2023-05-09T10:08:41.136Z,101137.16
2023-05-09T10:19:09.132Z,101105.56
2023-05-09T10:30:41.138Z,101098.22
2023-05-09T10:35:48.904Z,101099.19
2023-05-09T10:53:41.364Z,101054.03
2023-05-09T10:59:00.458Z,101049.06
2023-05-09T11:04:10.075Z,101040.50
2023-05-09T11:09:32.750Z,101026.38
2023-05-09T11:14:42.452Z,101020.59
2023-05-09T11:20:05.466Z,101015.66
2023-05-09T11:25:10.390Z,100991.88
2023-05-09T11:30:16.850Z,100995.53
2023-05-09T11:35:21.387Z,100974.25
2023-05-09T11:40:24.283Z,100971.34
2023-05-09T11:45:30.276Z,100962.75
2023-05-09T11:50:33.371Z,100961.88
2023-05-09T11:55:38.905Z,100947.09
2023-05-09T12:00:46.750Z,100949.72
2023-05-09T12:05:49.335Z,100940.81
2023-05-09T12:10:52.526Z,100936.56
2023-05-09T12:16:02.974Z,100930.84
2023-05-09T12:21:07.157Z,100922.13
2023-05-09T12:26:10.962Z,100927.28
2023-05-09T12:31:15.563Z,100915.59
2023-05-09T12:36:18.733Z,100911.31
2023-05-09T12:41:34.799Z,100916.59
2023-05-09T12:46:41.586Z,100915.56
2023-05-09T12:51:49.588Z,100911.16
2023-05-09T12:56:53.534Z,100902.34
2023-05-09T13:02:00.048Z,100890.19
2023-05-09T13:07:10.269Z,100884.13
2023-05-09T13:12:13.125Z,100888.81
2023-05-09T13:17:17.261Z,100865.41
2023-05-09T13:22:19.997Z,100863.03
2023-05-09T13:27:22.883Z,100863.53
2023-05-09T13:32:27.318Z,100860.41
2023-05-09T13:37:30.233Z,100854.06
2023-05-09T13:42:35.303Z,100844.47
2023-05-09T13:47:39.472Z,100838.75
2023-05-09T13:52:42.273Z,100838.81
2023-05-09T13:57:45.186Z,100827.53
2023-05-09T14:02:49.769Z,100821.28
2023-05-09T14:07:52.684Z,100815.84
2023-05-09T14:12:57.021Z,100805.75
2023-05-09T14:18:01.612Z,100793.75
2023-05-09T14:23:04.605Z,100800.09
2023-05-09T14:28:09.284Z,100785.06
2023-05-09T14:33:14.412Z,100775.38
2023-05-09T14:38:17.240Z,100772.91
2023-05-09T14:43:20.223Z,100765.00
2023-05-09T14:48:24.505Z,100771.84
2023-05-09T14:53:28.607Z,100751.78
2023-05-09T14:58:34.570Z,100749.47
2023-05-09T15:03:39.360Z,100742.47
2023-05-09T15:08:42.269Z,100728.13
2023-05-09T15:13:45.057Z,100721.47
2023-05-09T15:18:49.204Z,100712.13
2023-05-09T15:23:51.941Z,100706.94
2023-05-09T15:28:54.672Z,100704.84
2023-05-09T15:34:01.397Z,100696.50
2023-05-09T15:39:05.089Z,100689.50
2023-05-09T15:44:08.211Z,100681.31
2023-05-09T15:49:12.797Z,100674.06
2023-05-09T15:54:15.662Z,100682.06
2023-05-09T15:59:18.777Z,100669.28
2023-05-09T16:04:23.136Z,100664.09
2023-05-09T16:09:25.857Z,100660.50
2023-05-09T16:14:28.766Z,100658.59
2023-05-09T16:19:35.721Z,100650.22
2023-05-09T16:24:38.696Z,100652.56
2023-05-09T16:29:41.620Z,100646.63
2023-05-09T16:34:45.676Z,100633.94
2023-05-09T16:39:48.487Z,100622.38
2023-05-09T16:44:51.249Z,100619.38
2023-05-09T16:49:55.287Z,100618.50
2023-05-09T16:54:59.319Z,100617.34
2023-05-09T17:00:02.422Z,100608.00
2023-05-09T17:05:07.566Z,100610.09
2023-05-09T17:10:11.170Z,100604.72
2023-05-09T17:15:13.976Z,100599.19
2023-05-09T17:20:18.299Z,100607.88
2023-05-09T17:25:21.260Z,100595.91
2023-05-09T17:30:24.440Z,100591.47
2023-05-09T17:35:28.612Z,100590.34
2023-05-09T17:40:31.398Z,100591.47
2023-05-09T17:45:34.222Z,100591.09
2023-05-09T17:50:38.343Z,100576.81
2023-05-09T17:55:42.541Z,100576.81
2023-05-09T18:00:45.686Z,100581.69
2023-05-09T18:05:50.546Z,100585.75
2023-05-09T18:10:56.658Z,100583.63
2023-05-09T18:16:00.683Z,100588.63
2023-05-09T18:21:05.437Z,100577.59
2023-05-09T18:26:08.822Z,100589.88
2023-05-09T18:31:13.205Z,100580.97
2023-05-09T18:36:20.584Z,100580.91
2023-05-09T18:41:24.138Z,100578.25
2023-05-09T18:46:27.994Z,100572.38
2023-05-09T18:51:34.004Z,100565.66
2023-05-09T18:56:39.332Z,100575.59
2023-05-09T19:01:46.114Z,100576.22
2023-05-09T19:06:50.870Z,100577.00
2023-05-09T19:11:53.757Z,100580.72
2023-05-09T19:16:56.692Z,100580.22
2023-05-09T19:22:01.229Z,100589.53
2023-05-09T19:27:05.120Z,100585.72
2023-05-09T19:32:08.310Z,100583.59
2023-05-09T19:37:15.510Z,100579.88
2023-05-09T19:42:18.487Z,100582.75
2023-05-09T19:47:21.345Z,100578.25
2023-05-09T19:52:25.596Z,100582.59
2023-05-09T19:57:28.666Z,100584.84
2023-05-09T20:02:32.917Z,100578.81
2023-05-09T20:07:37.184Z,100580.03
2023-05-09T20:12:44.470Z,100580.78
2023-05-09T20:17:54.249Z,100580.09
2023-05-09T20:22:59.130Z,100575.72
2023-05-09T20:28:03.863Z,100568.00
2023-05-09T20:33:06.803Z,100569.72
2023-05-09T20:38:11.134Z,100564.84
2023-05-09T20:43:13.935Z,100568.06
2023-05-09T20:48:17.113Z,100561.66
2023-05-09T20:53:22.364Z,100548.59
2023-05-09T20:58:25.165Z,100539.56
2023-05-09T21:03:28.082Z,100532.66
2023-05-09T21:08:36.678Z,100528.59
2023-05-09T21:13:39.613Z,100531.38
2023-05-09T21:18:42.490Z,100527.53
2023-05-09T21:23:46.621Z,100529.41
2023-05-09T21:28:49.421Z,100527.31
2023-05-09T21:33:52.792Z,100521.16
2023-05-09T21:38:56.952Z,100511.88
2023-05-09T21:43:59.691Z,100510.16
2023-05-09T21:49:02.815Z,100501.03
2023-05-09T21:54:07.166Z,100496.00
2023-05-09T21:59:10.038Z,100492.84
2023-05-09T22:04:12.794Z,100491.81
2023-05-09T22:09:16.921Z,100483.22
2023-05-09T22:14:19.685Z,100484.28
2023-05-09T22:19:22.493Z,100475.44
2023-05-09T22:24:26.866Z,100476.28
2023-05-09T22:29:29.626Z,100469.94
2023-05-09T22:34:32.631Z,100478.81
2023-05-09T22:39:36.739Z,100471.50
2023-05-09T22:44:39.569Z,100473.00
2023-05-09T22:49:44.019Z,100468.38
2023-05-09T22:54:49.844Z,100463.19
2023-05-09T22:59:53.219Z,100458.91
2023-05-09T23:04:56.078Z,100458.69
2023-05-09T23:10:00.490Z,100454.09
2023-05-09T23:15:03.444Z,100448.63
2023-05-09T23:20:07.546Z,100439.31
2023-05-09T23:25:11.883Z,100446.19
2023-05-09T23:30:15.005Z,100436.38
2023-05-09T23:35:19.156Z,100435.63
2023-05-09T23:40:23.580Z,100438.88
2023-05-09T23:45:26.788Z,100436.28
2023-05-09T23:50:29.526Z,100432.56
2023-05-09T23:55:33.577Z,100423.84
